Grand Blanc, MI (48439)

9:09 AM EST on January 17, 2017 (GMT -0500)
Creekside Village | | Change Station

Elev 853 ft 42.90 °N, 83.62 °W | Updated 2 seconds ago

Overcast
Overcast
35.7 °F
Feels Like 36 °F
N
0.0
Wind Variable Wind from East

Today
High -- | Low -- °F
--% Chance of Precip.
Yesterday
High -- | Low -- °F
Precip. -- in
Pressure 29.80 in
Visibility 5.0 miles
Clouds Overcast 500 ft
Windchill 36 °F
Dew Point 35 °F
Humidity 98%
Rainfall 0.38 in
Snow Depth Not available.
8:01 AM 5:28 PM
Waning Gibbous, 72% visible
METAR KFNT 171353Z 08005KT 5SM BR OVC005 02/02 A2977 RMK AO2 RAE34UPB34E36 SLP090 P0009 T00170017
Pressure 29.80 in
Visibility 5.0 miles
Clouds Overcast 500 ft
Windchill 36 °F
Dew Point 35 °F
Humidity 98%
Rainfall 0.38 in
Snow Depth Not available.
8:01 AM 5:28 PM
Waning Gibbous, 72% visible
METAR KFNT 171353Z 08005KT 5SM BR OVC005 02/02 A2977 RMK AO2 RAE34UPB34E36 SLP090 P0009 T00170017

Get Your Daily Forecast Email!

Thanks for signing up!

Be on the lookout for a verification email in your inbox.

You'll start receiving the daily forecast at 8 AM.

×

10-Day Weather Forecast

Almanac

Astronomy

Jan. 17, 2017 Rise Set
Actual Time
Civil Twilight
Nautical Twilight
Astronomical Twilight
Moon
Length of Visible Light
Length of Day
Tomorrow will be .
, % of the Moon is Illuminated

Today's Extremes

State Highs State Lows

Community

WunderPhotos

Upload Photos

1,962,540 photos uploaded!

WunderBlog® & News

Nearby

Air Quality

  Air Quality AQ Index Pollutant
Not available.

Snow Depth

Station Depth Elevation

Earthquake Activity

City Distance Mag. Time & Date
Minimum magnitude displayed is 2.5.

Coastal Water Temperatures

Place Temperature

Stations

Nearby Weather Stations

Station Location Temp. Windchill Dew Point Humidity Wind Precip. Elev Updated Type
                   

Watches & Warnings

There are currently no watches in effect.